Time;durP1;ratioP1;P1;durP2;ratioP2;P2;SDS_P1;SDS_P2;PMS_P1;PMS_P2;Temp;Humidity;BMP_temperature;BMP_pressure;BME280_temperature;BME280_humidity;BME280_pressure;Samples;Min_cycle;Max_cycle;Signal;HPM_P1;HPM_P2
2022/01/20 00:00:32;;;;;;;24.33;4.47;;;;;;;1.71;94.21;102348.88;5027899;28;20469;-73
2022/01/20 00:03:01;;;;;;;21.63;4.75;;;;;;;1.68;93.45;102348.00;5026218;28;20031;-73
2022/01/20 00:06:03;;;;;;;18.10;5.03;;;;;;;1.66;94.27;102336.56;5025069;28;20026;-73
2022/01/20 00:28:09;;;;;;;19.63;4.45;;;;;;;1.33;93.36;102360.78;5022173;28;20111;-73
2022/01/20 00:38:14;;;;;;;20.67;4.65;;;;;;;1.19;94.12;102365.34;5021041;28;20478;-74
2022/01/20 00:40:40;;;;;;;21.13;4.68;;;;;;;1.15;93.52;102358.31;5004807;28;20120;-73
2022/01/20 00:43:05;;;;;;;26.17;5.05;;;;;;;1.14;93.88;102359.19;5021326;28;20513;-72
2022/01/20 00:45:31;;;;;;;20.02;4.13;;;;;;;1.11;93.48;102361.88;5021618;28;20494;-73
2022/01/20 00:47:57;;;;;;;12.25;3.67;;;;;;;1.11;93.71;102354.78;5021989;28;20037;-73
2022/01/20 00:50:22;;;;;;;18.35;4.50;;;;;;;1.12;94.40;102345.09;5020839;28;20409;-73
2022/01/20 00:52:48;;;;;;;25.77;5.05;;;;;;;1.19;95.59;102344.16;5031318;28;20021;-73
2022/01/20 00:55:13;;;;;;;22.38;4.53;;;;;;;1.28;96.09;102344.03;5029809;28;20032;-73
2022/01/20 00:57:38;;;;;;;16.75;3.90;;;;;;;1.33;95.56;102342.25;5027805;28;20040;-72
2022/01/20 01:00:07;;;;;;;19.95;4.78;;;;;;;1.43;96.42;102352.72;5027458;28;20037;-72
2022/01/20 01:02:33;;;;;;;18.85;4.13;;;;;;;1.50;96.63;102365.00;5025927;28;20043;-73
2022/01/20 01:04:59;;;;;;;22.48;4.20;;;;;;;1.63;97.53;102363.09;5032174;28;20072;-73
2022/01/20 01:07:44;;;;;;;21.73;4.88;;;;;;;1.79;98.22;102371.72;5025964;28;20049;-73
2022/01/20 01:10:12;;;;;;;19.08;5.10;;;;;;;2.02;97.91;102369.69;5027487;28;20041;-73
2022/01/20 01:12:50;;;;;;;23.50;4.60;;;;;;;2.18;97.59;102378.31;5032238;28;20028;-72
2022/01/20 01:15:22;;;;;;;19.33;3.65;;;;;;;2.29;96.92;102380.81;5026852;28;20045;-73
2022/01/20 01:23:42;;;;;;;25.02;4.80;;;;;;;2.48;96.35;102384.09;5004864;28;20038;-73
2022/01/20 01:26:11;;;;;;;17.45;4.13;;;;;;;2.50;96.26;102384.06;5011762;28;20045;-73
2022/01/20 01:28:37;;;;;;;13.15;3.90;;;;;;;2.49;96.14;102384.94;4989140;28;20120;-73
2022/01/20 01:33:54;;;;;;;19.55;3.58;;;;;;;2.46;96.07;102383.25;5006333;28;20468;-73
2022/01/20 01:36:22;;;;;;;14.07;3.35;;;;;;;2.48;95.76;102385.88;4988098;28;20030;-73
2022/01/20 01:38:48;;;;;;;16.50;3.88;;;;;;;2.46;95.23;102385.91;5006613;28;20045;-73
2022/01/20 01:41:17;;;;;;;19.20;3.67;;;;;;;2.49;95.50;102382.28;5007580;28;20128;-72
2022/01/20 01:43:46;;;;;;;20.90;4.63;;;;;;;2.48;95.18;102377.91;4988525;28;20124;-72
2022/01/20 01:46:14;;;;;;;17.70;3.63;;;;;;;2.41;95.07;102380.63;5006593;28;20034;-72
2022/01/20 01:48:41;;;;;;;22.55;4.75;;;;;;;2.42;95.26;102386.84;5004760;28;20046;-72
2022/01/20 01:51:07;;;;;;;16.05;4.03;;;;;;;2.40;95.11;102392.16;5009431;28;20109;-72
2022/01/20 01:53:32;;;;;;;17.42;3.33;;;;;;;2.40;95.68;102386.84;5028633;28;20159;-72
2022/01/20 01:55:57;;;;;;;21.70;4.38;;;;;;;2.40;95.80;102386.84;5024773;28;20389;-72
2022/01/20 01:58:23;;;;;;;16.23;3.83;;;;;;;2.38;95.65;102385.13;5034354;28;20032;-72
2022/01/20 02:00:49;;;;;;;23.40;5.07;;;;;;;2.34;95.42;102397.53;5032908;28;20034;-75
2022/01/20 02:03:15;;;;;;;16.92;3.80;;;;;;;2.34;95.46;102386.91;5027658;28;20021;-75
2022/01/20 02:05:57;;;;;;;20.08;4.25;;;;;;;2.32;95.35;102383.41;5025247;28;20619;-76
2022/01/20 02:08:39;;;;;;;14.95;3.55;;;;;;;2.29;94.94;102372.84;5026292;28;20021;-76
2022/01/20 02:19:18;;;;;;;19.88;4.28;;;;;;;2.45;96.49;102386.78;5025754;28;20048;-76
2022/01/20 02:21:53;;;;;;;9.32;3.13;;;;;;;2.53;97.00;102394.63;5023192;28;20028;-76
2022/01/20 02:24:19;;;;;;;14.38;2.92;;;;;;;2.64;96.71;102399.78;5027266;28;20116;-76
2022/01/20 02:26:44;;;;;;;14.13;3.63;;;;;;;2.74;96.86;102404.06;5023637;28;20036;-76
2022/01/20 02:29:11;;;;;;;9.43;2.28;;;;;;;2.80;96.69;102410.13;5025181;28;20022;-76
2022/01/20 02:31:36;;;;;;;11.25;2.47;;;;;;;2.86;96.45;102393.22;5026753;28;20434;-75
2022/01/20 02:34:02;;;;;;;16.23;3.10;;;;;;;2.88;96.58;102398.50;5029397;28;20020;-75
2022/01/20 02:36:28;;;;;;;16.23;3.30;;;;;;;2.89;96.61;102389.66;5022951;28;20037;-75
2022/01/20 02:39:03;;;;;;;17.52;3.63;;;;;;;2.90;96.51;102378.09;5025959;28;20029;-75
2022/01/20 02:46:55;;;;;;;17.20;2.45;;;;;;;3.00;95.76;102379.72;5022734;28;20417;-75
2022/01/20 02:49:21;;;;;;;13.30;2.67;;;;;;;3.02;95.72;102377.91;5025800;28;20025;-76
2022/01/20 02:51:49;;;;;;;15.93;2.78;;;;;;;3.03;96.10;102398.28;5028299;28;20025;-76
2022/01/20 02:54:14;;;;;;;10.90;2.90;;;;;;;3.04;96.25;102394.69;5027499;28;20033;-76
2022/01/20 02:56:40;;;;;;;16.50;2.90;;;;;;;3.02;96.13;102393.84;5025485;28;20029;-75
2022/01/20 02:59:05;;;;;;;15.18;3.50;;;;;;;2.98;95.97;102378.88;5025965;28;20462;-75
2022/01/20 03:01:32;;;;;;;17.75;3.20;;;;;;;2.97;95.69;102374.44;5022478;28;20091;-75
2022/01/20 03:03:58;;;;;;;15.07;3.85;;;;;;;2.88;95.83;102372.81;5029593;28;20389;-75
2022/01/20 03:06:23;;;;;;;13.57;2.97;;;;;;;2.87;95.74;102364.88;5022060;28;20036;-75
2022/01/20 03:08:49;;;;;;;14.85;2.80;;;;;;;2.84;95.70;102356.97;5025183;28;20021;-76
2022/01/20 03:11:14;;;;;;;10.20;2.65;;;;;;;2.83;95.62;102365.88;5031087;28;20435;-76
2022/01/20 03:13:39;;;;;;;16.50;3.25;;;;;;;2.78;95.03;102360.59;5024713;28;20166;-76
2022/01/20 03:16:05;;;;;;;16.00;3.20;;;;;;;2.68;94.68;102378.47;5030676;28;20655;-75
2022/01/20 03:18:30;;;;;;;13.48;3.35;;;;;;;2.61;94.47;102374.16;5026273;28;20068;-75
2022/01/20 03:20:55;;;;;;;16.45;3.30;;;;;;;2.57;94.76;102362.69;5025738;28;20564;-75
2022/01/20 03:23:21;;;;;;;16.45;2.50;;;;;;;2.48;94.04;102354.03;5026159;28;20031;-75
2022/01/20 03:25:46;;;;;;;12.93;3.30;;;;;;;2.40;94.54;102347.06;5031808;28;20070;-75
2022/01/20 03:28:11;;;;;;;14.82;3.10;;;;;;;2.32;94.41;102345.41;5038883;28;20104;-75
2022/01/20 03:30:37;;;;;;;18.63;4.22;;;;;;;2.25;94.89;102349.91;5024960;28;20025;-75
2022/01/20 03:33:02;;;;;;;11.65;3.63;;;;;;;2.20;94.25;102355.28;5026689;28;20452;-75
2022/01/20 03:35:28;;;;;;;13.55;3.75;;;;;;;2.20;95.05;102354.44;5023117;28;20029;-75
2022/01/20 03:37:53;;;;;;;17.52;3.75;;;;;;;2.17;95.32;102357.13;5027785;28;20027;-75
2022/01/20 03:40:20;;;;;;;13.45;3.38;;;;;;;2.15;94.63;102351.81;5028828;28;20032;-75
2022/01/20 03:42:46;;;;;;;18.42;2.80;;;;;;;2.13;94.73;102350.97;5027097;28;20029;-75
2022/01/20 03:45:11;;;;;;;15.43;3.28;;;;;;;2.14;95.55;102351.84;5026937;28;20401;-75
2022/01/20 03:47:37;;;;;;;14.68;3.08;;;;;;;2.17;95.52;102362.44;5023758;28;20144;-75
2022/01/20 03:50:09;;;;;;;15.98;3.17;;;;;;;2.20;95.74;102354.44;5032790;28;20036;-76
2022/01/20 03:52:35;;;;;;;15.15;3.22;;;;;;;2.20;95.46;102355.28;5028794;28;20513;-76
2022/01/20 03:55:00;;;;;;;17.38;3.28;;;;;;;2.19;95.42;102353.53;5029404;28;20025;-75
2022/01/20 03:57:26;;;;;;;16.70;2.85;;;;;;;2.18;95.48;102354.44;5026253;28;20040;-75
2022/01/20 03:59:51;;;;;;;13.10;2.65;;;;;;;2.11;94.30;102347.47;5026308;28;20104;-75
2022/01/20 04:02:17;;;;;;;17.67;3.50;;;;;;;2.09;95.03;102352.81;5030528;28;20033;-75
2022/01/20 04:04:42;;;;;;;14.77;3.17;;;;;;;2.05;95.00;102356.38;5027907;28;20064;-75
2022/01/20 04:07:08;;;;;;;23.38;3.25;;;;;;;2.00;94.62;102360.84;5024692;28;20449;-75
2022/01/20 04:09:33;;;;;;;15.93;3.13;;;;;;;2.04;95.61;102359.94;5024519;28;20090;-75
2022/01/20 04:11:59;;;;;;;14.85;3.28;;;;;;;2.04;94.96;102357.28;5027141;28;20100;-75
2022/01/20 04:14:26;;;;;;;13.73;3.35;;;;;;;2.07;95.29;102370.50;5027448;28;20096;-75
2022/01/20 04:19:21;;;;;;;13.07;2.40;;;;;;;2.18;95.50;102374.78;5031357;28;20037;-76
2022/01/20 04:21:47;;;;;;;15.68;3.60;;;;;;;2.22;95.16;102371.19;5025734;28;20083;-76
2022/01/20 04:24:12;;;;;;;15.63;3.95;;;;;;;2.24;95.62;102364.06;5023693;28;20056;-75
2022/01/20 04:26:39;;;;;;;16.73;2.78;;;;;;;2.33;95.37;102377.22;5034301;28;20400;-75
2022/01/20 04:29:06;;;;;;;19.20;3.33;;;;;;;2.40;95.39;102380.66;5029461;28;20033;-75
2022/01/20 04:31:34;;;;;;;15.85;2.88;;;;;;;2.47;95.01;102386.75;5031406;28;20033;-75
2022/01/20 04:33:59;;;;;;;19.20;3.95;;;;;;;2.54;94.80;102377.81;5026455;28;20037;-75
2022/01/20 04:36:31;;;;;;;19.50;3.15;;;;;;;2.58;95.25;102404.28;5027098;28;20033;-76
2022/01/20 04:38:59;;;;;;;14.55;2.47;;;;;;;2.64;94.94;102403.31;5027775;28;20154;-76
2022/01/20 04:41:27;;;;;;;18.95;3.45;;;;;;;2.69;95.40;102403.25;5027949;28;20033;-75
2022/01/20 04:43:52;;;;;;;21.40;4.13;;;;;;;2.75;95.18;102403.13;5033904;28;20021;-75
2022/01/20 04:57:06;;;;;;;18.92;4.15;;;;;;;2.76;95.01;102397.81;5032749;28;20197;-75
2022/01/20 04:59:32;;;;;;;27.52;4.57;;;;;;;2.76;95.12;102405.75;5025935;28;20102;-75
2022/01/20 05:01:57;;;;;;;21.75;3.88;;;;;;;2.78;94.79;102419.91;5029705;28;20383;-75
2022/01/20 05:04:24;;;;;;;25.45;3.90;;;;;;;2.78;95.25;102419.00;5027689;28;20116;-76
2022/01/20 05:06:52;;;;;;;15.93;3.78;;;;;;;2.79;95.54;102426.09;5029337;28;20037;-76
2022/01/20 05:09:19;;;;;;;20.77;4.40;;;;;;;2.82;95.97;102433.13;5026323;28;20052;-76
2022/01/20 05:11:49;;;;;;;21.30;3.65;;;;;;;2.81;95.93;102434.91;5032038;28;20110;-76
2022/01/20 05:14:15;;;;;;;20.40;3.85;;;;;;;2.83;96.02;102437.56;5032081;28;20735;-76
2022/01/20 05:16:40;;;;;;;16.90;3.75;;;;;;;2.84;95.55;102434.88;5024286;28;20052;-76
2022/01/20 05:19:05;;;;;;;20.40;3.67;;;;;;;2.87;95.26;102434.81;5030257;28;20182;-76
2022/01/20 05:21:31;;;;;;;22.67;3.63;;;;;;;2.89;95.46;102434.81;5023887;28;20036;-76
2022/01/20 05:23:56;;;;;;;23.45;4.13;;;;;;;2.94;95.33;102446.22;5027690;28;20508;-76
2022/01/20 05:26:21;;;;;;;31.15;4.18;;;;;;;2.95;94.99;102443.53;5024366;28;20123;-76
2022/01/20 05:28:46;;;;;;;18.80;4.30;;;;;;;2.99;95.46;102457.66;5031483;28;20401;-76
2022/01/20 05:31:12;;;;;;;21.23;4.50;;;;;;;3.00;95.13;102453.22;5030385;28;20029;-76
2022/01/20 05:33:37;;;;;;;18.15;3.90;;;;;;;3.02;94.90;102454.94;5027578;28;20029;-76
2022/01/20 05:36:02;;;;;;;30.15;5.72;;;;;;;3.01;94.85;102452.31;5028239;28;20033;-76
2022/01/20 05:38:28;;;;;;;19.13;3.83;;;;;;;3.02;94.61;102457.59;5022818;28;20552;-76
2022/01/20 05:40:53;;;;;;;18.50;4.53;;;;;;;3.03;94.77;102477.97;5054947;28;20221;-76
2022/01/20 05:43:19;;;;;;;14.50;2.63;;;;;;;2.99;94.99;102473.59;5031412;28;20072;-76
2022/01/20 05:45:44;;;;;;;14.82;2.83;;;;;;;2.97;95.35;102464.75;5027739;28;20044;-76
2022/01/20 05:48:15;;;;;;;14.80;3.85;;;;;;;2.95;94.90;102469.22;5027795;28;20405;-76
2022/01/20 05:50:42;;;;;;;22.77;3.63;;;;;;;2.93;94.37;102476.34;5030724;28;20115;-76
2022/01/20 05:53:08;;;;;;;19.75;3.47;;;;;;;2.87;94.38;102485.28;5025254;28;20037;-76
2022/01/20 05:55:35;;;;;;;17.50;3.20;;;;;;;2.84;93.83;102493.28;5025751;28;20045;-76
2022/01/20 05:58:01;;;;;;;12.13;2.75;;;;;;;2.84;93.75;102503.03;5025808;28;20021;-76
2022/01/20 06:00:27;;;;;;;11.88;2.40;;;;;;;2.84;93.85;102503.03;5032145;28;20058;-76
2022/01/20 06:05:38;;;;;;;16.75;3.70;;;;;;;2.77;94.03;102507.56;5030730;28;20100;-76
2022/01/20 06:08:04;;;;;;;11.00;3.17;;;;;;;2.80;94.41;102510.16;5025280;28;20105;-76
2022/01/20 06:10:31;;;;;;;15.23;3.08;;;;;;;2.77;93.40;102510.22;5029601;28;20153;-76
2022/01/20 06:12:58;;;;;;;7.82;2.30;;;;;;;2.79;93.85;102519.88;5028793;28;20529;-76
2022/01/20 06:15:23;;;;;;;14.88;3.38;;;;;;;2.80;93.04;102519.00;5032633;28;20056;-76
2022/01/20 06:17:48;;;;;;;11.18;2.95;;;;;;;2.79;93.60;102519.88;5035721;28;20397;-76
2022/01/20 06:20:14;;;;;;;16.83;2.97;;;;;;;2.80;93.09;102519.00;5028139;28;20044;-76
2022/01/20 06:22:39;;;;;;;13.30;3.33;;;;;;;2.80;91.92;102523.44;5025124;28;20448;-75
2022/01/20 06:25:05;;;;;;;16.95;3.08;;;;;;;2.76;91.39;102527.03;5028046;28;20050;-76
2022/01/20 06:27:31;;;;;;;16.50;3.08;;;;;;;2.78;92.52;102535.84;5029925;28;20037;-76
2022/01/20 06:29:56;;;;;;;18.63;3.88;;;;;;;2.77;92.13;102542.94;5027750;28;20033;-76
2022/01/20 06:32:21;;;;;;;17.70;3.25;;;;;;;2.76;92.02;102543.81;5030857;28;20394;-76
2022/01/20 06:34:47;;;;;;;24.65;4.22;;;;;;;2.74;91.59;102542.97;5025828;28;20056;-76
2022/01/20 06:37:13;;;;;;;10.40;3.38;;;;;;;2.74;91.94;102540.31;5027018;28;20381;-76
2022/01/20 06:39:38;;;;;;;16.85;3.05;;;;;;;2.74;91.93;102544.78;5025525;28;20498;-76
2022/01/20 06:42:04;;;;;;;19.42;3.67;;;;;;;2.72;92.16;102542.09;5026718;28;20096;-76
2022/01/20 06:44:29;;;;;;;19.98;3.88;;;;;;;2.72;91.16;102536.78;5028466;28;20036;-76
2022/01/20 06:46:55;;;;;;;16.17;3.20;;;;;;;2.71;91.29;102556.31;5021088;28;20073;-76
2022/01/20 06:49:20;;;;;;;18.48;4.00;;;;;;;2.71;91.87;102556.31;5025910;28;20062;-76
2022/01/20 06:51:46;;;;;;;18.67;3.50;;;;;;;2.71;92.03;102561.63;5028199;28;20040;-76
2022/01/20 06:54:11;;;;;;;19.83;3.95;;;;;;;2.68;90.47;102572.28;5030465;28;20129;-76
2022/01/20 06:56:37;;;;;;;16.08;3.60;;;;;;;2.66;90.80;102560.78;5026845;28;20025;-76
2022/01/20 06:59:03;;;;;;;17.70;3.42;;;;;;;2.67;90.39;102574.94;5028930;28;20112;-76
2022/01/20 07:01:28;;;;;;;18.33;4.18;;;;;;;2.65;91.92;102577.63;5030246;28;20549;-76
2022/01/20 07:03:54;;;;;;;17.95;3.92;;;;;;;2.64;89.76;102575.84;5027912;28;20466;-76
2022/01/20 07:06:19;;;;;;;20.42;4.80;;;;;;;2.61;91.10;102590.03;5033918;28;20463;-76
2022/01/20 07:08:44;;;;;;;20.45;4.63;;;;;;;2.57;90.86;102590.09;5029438;28;20037;-76
2022/01/20 07:11:10;;;;;;;18.45;4.55;;;;;;;2.57;91.38;102587.44;5026073;28;20056;-76
2022/01/20 07:13:35;;;;;;;25.65;5.13;;;;;;;2.51;91.31;102596.34;5025105;28;20038;-76
2022/01/20 07:16:01;;;;;;;20.48;4.47;;;;;;;2.50;90.29;102599.03;5026344;28;20191;-76
2022/01/20 07:18:27;;;;;;;18.27;4.55;;;;;;;2.50;90.58;102599.03;5025222;28;20104;-76
2022/01/20 07:20:52;;;;;;;21.65;4.97;;;;;;;2.49;90.00;102598.16;5029354;28;20116;-76
2022/01/20 07:23:17;;;;;;;16.88;3.97;;;;;;;2.49;90.13;102599.91;5027118;28;20552;-76
2022/01/20 07:25:43;;;;;;;20.90;4.63;;;;;;;2.48;91.04;102606.13;5025739;28;20041;-76
2022/01/20 07:28:08;;;;;;;19.08;4.40;;;;;;;2.45;89.71;102626.50;5024635;28;20453;-76
2022/01/20 07:30:33;;;;;;;25.33;4.15;;;;;;;2.45;90.27;102620.31;5025006;28;20535;-76
2022/01/20 07:33:02;;;;;;;16.98;3.85;;;;;;;2.45;89.19;102612.34;5025317;28;20033;-76
2022/01/20 07:35:28;;;;;;;21.30;5.13;;;;;;;2.46;88.77;102627.38;5024269;28;20056;-76
2022/01/20 07:37:53;;;;;;;20.52;3.88;;;;;;;2.47;88.40;102631.78;5023352;28;20052;-76
2022/01/20 07:40:19;;;;;;;19.88;4.85;;;;;;;2.47;88.21;102639.75;5027511;28;20022;-76
2022/01/20 07:42:44;;;;;;;18.50;3.83;;;;;;;2.48;88.98;102636.19;5022338;28;20021;-75
2022/01/20 07:45:10;;;;;;;19.65;3.08;;;;;;;2.48;87.76;102636.19;5025473;28;20018;-75
2022/01/20 07:47:35;;;;;;;19.52;4.00;;;;;;;2.50;87.92;102637.06;5026593;28;20030;-75
2022/01/20 07:50:00;;;;;;;21.88;3.92;;;;;;;2.51;89.14;102638.81;5024123;28;20408;-75
2022/01/20 07:52:26;;;;;;;13.93;3.30;;;;;;;2.50;88.41;102634.41;5021610;28;20033;-76
2022/01/20 07:54:51;;;;;;;22.50;3.80;;;;;;;2.52;89.10;102650.31;5027494;28;20021;-75
2022/01/20 07:57:16;;;;;;;14.05;3.90;;;;;;;2.50;89.11;102647.66;5030323;28;20057;-75
2022/01/20 07:59:42;;;;;;;20.40;4.15;;;;;;;2.52;89.57;102650.31;5021531;28;20521;-76
2022/01/20 08:02:08;;;;;;;17.50;4.03;;;;;;;2.51;90.84;102652.09;5031986;28;20025;-76
2022/01/20 08:04:33;;;;;;;25.30;4.32;;;;;;;2.52;89.05;102655.63;5025700;28;20025;-76
2022/01/20 08:06:58;;;;;;;21.52;3.90;;;;;;;2.53;90.62;102647.63;5021701;28;20527;-76
2022/01/20 08:09:24;;;;;;;18.95;3.75;;;;;;;2.52;91.15;102656.50;5023645;28;20029;-76
2022/01/20 08:11:49;;;;;;;18.27;4.22;;;;;;;2.55;90.12;102668.88;5022819;28;20049;-76
2022/01/20 08:14:15;;;;;;;15.18;3.85;;;;;;;2.54;91.02;102673.28;5023944;28;20044;-76
2022/01/20 08:16:40;;;;;;;16.23;3.92;;;;;;;2.56;90.88;102673.28;5026610;28;20029;-76
2022/01/20 08:19:06;;;;;;;22.48;4.40;;;;;;;2.55;89.85;102677.72;5022559;28;20146;-76
2022/01/20 08:21:31;;;;;;;19.70;4.10;;;;;;;2.56;89.96;102684.78;5024377;28;20025;-76
2022/01/20 08:23:56;;;;;;;17.60;4.40;;;;;;;2.57;89.23;102693.63;5023899;28;20133;-76
2022/01/20 08:26:21;;;;;;;22.08;4.57;;;;;;;2.58;90.13;102685.63;5026964;28;20029;-76
2022/01/20 08:28:47;;;;;;;19.30;4.18;;;;;;;2.58;90.64;102693.59;5022932;28;20064;-76
2022/01/20 08:31:12;;;;;;;24.75;5.05;;;;;;;2.58;89.28;102696.25;5030587;28;20420;-76
2022/01/20 08:33:37;;;;;;;9.52;3.47;;;;;;;2.61;88.59;102698.00;5042491;28;20052;-76
2022/01/20 08:36:03;;;;;;;19.52;4.15;;;;;;;2.59;89.41;102698.03;5024031;28;20030;-75
2022/01/20 08:38:29;;;;;;;24.50;4.10;;;;;;;2.60;87.00;102691.78;5022939;28;20072;-75
2022/01/20 08:40:54;;;;;;;30.38;4.25;;;;;;;2.62;87.10;102699.75;5023517;28;20021;-75
2022/01/20 08:43:19;;;;;;;20.17;4.63;;;;;;;2.61;86.10;102709.50;5021598;28;20087;-75
2022/01/20 08:45:46;;;;;;;18.00;3.47;;;;;;;2.58;85.03;102706.88;5022411;28;20247;-75
2022/01/20 08:48:13;;;;;;;15.10;2.67;;;;;;;2.57;85.32;102709.53;5024575;28;20029;-75
2022/01/20 08:50:40;;;;;;;17.13;3.92;;;;;;;2.54;85.03;102707.78;5017945;28;20472;-75
2022/01/20 08:53:05;;;;;;;14.95;3.13;;;;;;;2.56;85.13;102713.09;5019387;28;20040;-75
2022/01/20 08:55:31;;;;;;;19.42;4.20;;;;;;;2.56;85.84;102708.69;5024178;28;20397;-75
2022/01/20 08:57:58;;;;;;;14.73;3.08;;;;;;;2.57;84.72;102712.19;5023636;28;20036;-75
2022/01/20 09:00:27;;;;;;;11.73;2.42;;;;;;;2.59;84.33;102721.91;5023354;28;21425;-75
2022/01/20 09:02:52;;;;;;;16.35;2.92;;;;;;;2.61;84.96;102716.59;5023899;28;20685;-75
2022/01/20 09:05:18;;;;;;;12.82;2.72;;;;;;;2.64;84.84;102723.66;5021699;28;20045;-75
2022/01/20 09:07:43;;;;;;;16.85;3.25;;;;;;;2.66;83.69;102727.16;5022056;28;20433;-76
2022/01/20 09:10:08;;;;;;;15.82;3.40;;;;;;;2.66;83.93;102730.69;5045233;28;20110;-76
2022/01/20 09:17:52;;;;;;;22.45;4.10;;;;;;;2.71;84.57;102749.22;5029623;28;20039;-76
2022/01/20 09:20:18;;;;;;;15.00;2.90;;;;;;;2.71;83.47;102762.50;5027827;28;20444;-75
2022/01/20 09:22:43;;;;;;;17.45;3.47;;;;;;;2.75;84.54;102758.91;5025727;28;20051;-75
2022/01/20 09:25:08;;;;;;;15.48;2.95;;;;;;;2.77;85.65;102763.31;5026944;28;20025;-75
2022/01/20 09:27:34;;;;;;;15.13;3.20;;;;;;;2.75;83.27;102751.84;5026726;28;20442;-75
2022/01/20 09:30:01;;;;;;;17.65;3.80;;;;;;;2.78;83.87;102754.47;5029459;28;20508;-75
2022/01/20 09:32:29;;;;;;;15.82;2.75;;;;;;;2.79;84.32;102750.91;5029020;28;20045;-75
2022/01/20 09:34:56;;;;;;;17.45;2.95;;;;;;;2.80;83.72;102749.16;5027289;28;20025;-75
2022/01/20 09:37:22;;;;;;;12.65;2.63;;;;;;;2.77;84.31;102752.69;5025970;28;20045;-75
2022/01/20 09:39:47;;;;;;;20.48;3.53;;;;;;;2.77;84.40;102744.72;5024847;28;20041;-75
2022/01/20 09:42:13;;;;;;;23.98;3.47;;;;;;;2.84;83.83;102736.69;5026975;28;20437;-75
2022/01/20 09:44:44;;;;;;;19.65;3.92;;;;;;;2.95;84.31;102737.47;5026414;28;20029;-75
2022/01/20 09:47:10;;;;;;;23.27;4.65;;;;;;;3.06;83.94;102743.56;5025284;28;20017;-75
2022/01/20 09:49:37;;;;;;;17.45;3.80;;;;;;;3.15;84.94;102738.13;5033747;28;20107;-75
2022/01/20 09:52:03;;;;;;;14.57;4.13;;;;;;;3.17;81.70;102747.88;5024555;28;20036;-75
2022/01/20 09:54:28;;;;;;;16.02;2.67;;;;;;;3.17;81.88;102753.19;5041230;28;20503;-75
2022/01/20 09:56:53;;;;;;;14.18;3.05;;;;;;;3.16;82.68;102754.94;5041886;28;20025;-75
2022/01/20 09:59:19;;;;;;;15.05;3.38;;;;;;;3.13;82.71;102769.16;5031169;28;20450;-75
2022/01/20 10:01:49;;;;;;;16.48;3.28;;;;;;;3.11;82.08;102778.91;5038615;28;20075;-75
2022/01/20 10:04:35;;;;;;;19.98;3.45;;;;;;;3.05;80.47;102792.25;5031793;28;20585;-75
2022/01/20 10:07:06;;;;;;;16.88;4.00;;;;;;;3.01;80.24;102793.19;5038884;28;20076;-75
2022/01/20 10:09:35;;;;;;;26.08;3.17;;;;;;;3.01;82.14;102797.63;5035037;28;20029;-75
2022/01/20 10:12:01;;;;;;;17.48;3.10;;;;;;;3.06;81.64;102798.44;5027167;28;20061;-75
2022/01/20 10:14:38;;;;;;;14.10;3.33;;;;;;;3.10;81.77;102801.03;5026000;28;20565;-75
2022/01/20 10:17:17;;;;;;;12.70;2.70;;;;;;;3.14;81.80;102797.47;5023255;28;20049;-75
2022/01/20 10:19:43;;;;;;;20.38;3.05;;;;;;;3.21;80.81;102797.41;5025178;28;20454;-77
2022/01/20 10:22:17;;;;;;;20.15;3.10;;;;;;;3.28;78.98;102799.09;5022738;28;20029;-77
2022/01/20 10:25:02;;;;;;;15.25;3.33;;;;;;;3.37;80.21;102804.31;5022645;28;20022;-77
2022/01/20 10:27:28;;;;;;;15.80;2.95;;;;;;;3.43;80.14;102808.69;5023646;28;20405;-77
2022/01/20 10:30:04;;;;;;;15.18;3.25;;;;;;;3.44;78.60;102810.41;5021214;28;20018;-77
2022/01/20 10:32:45;;;;;;;28.13;3.88;;;;;;;3.47;78.20;102810.38;5030554;28;20032;-77
2022/01/20 10:35:12;;;;;;;12.02;2.45;;;;;;;3.49;78.12;102822.75;5028302;28;20490;-77
2022/01/20 10:38:10;;;;;;;11.30;2.78;;;;;;;3.56;77.56;102817.38;5029937;28;20167;-77
2022/01/20 10:40:59;;;;;;;16.67;3.03;;;;;;;3.67;77.47;102820.78;5027241;28;20430;-77
2022/01/20 10:43:27;;;;;;;13.82;3.38;;;;;;;3.81;75.71;102834.78;5025286;28;20070;-77
2022/01/20 10:46:08;;;;;;;19.50;3.95;;;;;;;3.97;76.48;102831.94;5025112;28;20112;-77
2022/01/20 10:48:34;;;;;;;20.15;3.50;;;;;;;4.00;72.59;102834.56;5026811;28;20037;-77
2022/01/20 10:50:59;;;;;;;23.55;6.10;;;;;;;4.00;73.12;102824.78;5025211;28;20087;-77
2022/01/20 10:53:25;;;;;;;22.23;4.32;;;;;;;3.96;72.53;102827.50;5027601;28;20509;-77
2022/01/20 10:55:51;;;;;;;20.58;4.82;;;;;;;3.95;73.14;102823.06;5038046;28;20037;-77
2022/01/20 10:58:23;;;;;;;21.73;4.43;;;;;;;3.94;74.58;102823.97;5026649;28;20394;-77
2022/01/20 11:00:51;;;;;;;17.10;2.97;;;;;;;3.96;73.51;102820.41;5030533;28;20394;-77
2022/01/20 11:03:17;;;;;;;19.83;4.13;;;;;;;4.00;73.38;102823.91;5023065;28;20120;-77
2022/01/20 11:05:48;;;;;;;10.98;2.80;;;;;;;3.96;71.41;102816.88;5025844;28;20048;-77
2022/01/20 11:08:14;;;;;;;14.40;3.30;;;;;;;3.95;71.46;102828.41;5028293;28;20026;-77
2022/01/20 11:10:42;;;;;;;17.00;3.60;;;;;;;3.92;71.95;102821.31;5024161;28;20056;-77
2022/01/20 11:13:09;;;;;;;12.65;2.97;;;;;;;3.93;70.92;102830.22;5025928;28;20400;-77
2022/01/20 11:15:34;;;;;;;20.45;3.40;;;;;;;3.89;71.02;102825.81;5026618;28;20091;-78
2022/01/20 11:17:59;;;;;;;17.25;3.55;;;;;;;3.84;72.78;102825.91;5026131;28;20041;-78
2022/01/20 11:20:28;;;;;;;13.40;3.13;;;;;;;3.77;71.48;102827.75;5025555;28;20037;-77
2022/01/20 11:22:56;;;;;;;16.55;3.42;;;;;;;3.70;71.89;102828.72;5027094;28;20468;-77
2022/01/20 11:25:23;;;;;;;15.73;3.35;;;;;;;3.70;72.46;102827.84;5027773;28;20097;-77
2022/01/20 11:27:52;;;;;;;16.30;3.30;;;;;;;3.75;72.10;102832.22;5024386;28;20443;-77
2022/01/20 11:30:26;;;;;;;20.15;4.10;;;;;;;3.87;72.66;102827.66;5026948;28;20053;-77
2022/01/20 11:33:10;;;;;;;13.25;2.83;;;;;;;4.01;73.25;102822.97;5026206;28;20021;-77
2022/01/20 11:35:39;;;;;;;17.45;4.10;;;;;;;4.11;71.00;102821.94;5021118;28;20037;-77
2022/01/20 11:38:04;;;;;;;17.80;3.42;;;;;;;4.16;70.35;102822.78;5024470;28;20714;-77
2022/01/20 11:40:29;;;;;;;13.02;2.83;;;;;;;4.17;70.30;102816.56;5027693;28;20068;-77
2022/01/20 11:43:11;;;;;;;18.98;4.07;;;;;;;4.15;70.31;102817.47;5027062;28;20041;-77
2022/01/20 11:45:39;;;;;;;15.32;3.30;;;;;;;4.15;71.23;102813.03;5025572;28;20032;-77
2022/01/20 11:48:16;;;;;;;15.05;3.28;;;;;;;4.15;70.19;102809.50;5030634;28;20516;-77
2022/01/20 11:50:43;;;;;;;20.70;3.53;;;;;;;4.12;71.29;102818.41;5025343;28;20052;-77
2022/01/20 11:53:19;;;;;;;21.92;4.05;;;;;;;4.13;73.04;102809.53;5023843;28;20441;-77
2022/01/20 11:55:48;;;;;;;21.98;3.42;;;;;;;4.09;70.86;102812.25;5022440;28;20029;-77
2022/01/20 11:58:16;;;;;;;22.05;4.43;;;;;;;4.07;70.84;102809.63;5025172;28;20056;-77
2022/01/20 12:00:42;;;;;;;18.88;3.90;;;;;;;4.08;72.15;102802.50;5021653;28;20494;-77
2022/01/20 12:03:12;;;;;;;16.92;3.17;;;;;;;4.09;73.48;102817.56;5024675;28;20108;-77
2022/01/20 12:05:37;;;;;;;17.23;3.05;;;;;;;4.09;72.82;102818.44;5019812;28;20033;-76
2022/01/20 12:08:20;;;;;;;21.80;4.47;;;;;;;4.03;71.61;102822.06;5010510;28;20040;-76
2022/01/20 12:11:00;;;;;;;20.52;4.97;;;;;;;3.96;71.72;102816.88;5017349;28;20084;-76
2022/01/20 12:13:26;;;;;;;19.33;4.05;;;;;;;3.85;72.81;102801.94;5018068;28;20044;-76
2022/01/20 12:15:55;;;;;;;23.00;3.75;;;;;;;3.86;74.61;102800.13;5015434;28;20029;-76
2022/01/20 12:18:21;;;;;;;15.70;3.22;;;;;;;3.98;75.47;102783.13;5015843;28;20057;-76
2022/01/20 12:20:46;;;;;;;15.45;3.08;;;;;;;4.09;71.88;102781.19;5019408;28;20172;-75
2022/01/20 12:23:12;;;;;;;15.38;2.97;;;;;;;4.19;72.64;102788.13;5014845;28;20219;-76
2022/01/20 12:25:37;;;;;;;14.52;3.10;;;;;;;4.24;72.82;102782.72;5014597;28;20125;-76
2022/01/20 12:28:11;;;;;;;15.77;3.58;;;;;;;4.25;72.47;102791.63;5016856;28;20061;-76
2022/01/20 12:30:40;;;;;;;18.88;3.58;;;;;;;4.26;71.59;102782.72;5016942;28;20147;-75
2022/01/20 12:33:12;;;;;;;16.63;2.60;;;;;;;4.19;72.16;102788.13;5022591;28;20039;-76
2022/01/20 12:35:41;;;;;;;13.45;3.17;;;;;;;4.19;73.56;102798.78;5018697;28;20037;-76